sensor_id;sensor_type;location;lat;lon;timestamp;P1;durP1;ratioP1;P2;durP2;ratioP2
26335;SDS011;14047;50.936;4.654;2022-11-13T00:00:54;32.17;;;21.13;;
26335;SDS011;14047;50.936;4.654;2022-11-13T00:03:20;30.45;;;19.92;;
26335;SDS011;14047;50.936;4.654;2022-11-13T00:05:47;30.02;;;20.15;;
26335;SDS011;14047;50.936;4.654;2022-11-13T00:08:12;42.45;;;22.23;;
26335;SDS011;14047;50.936;4.654;2022-11-13T00:10:38;35.60;;;20.08;;
26335;SDS011;14047;50.936;4.654;2022-11-13T00:13:04;35.22;;;20.40;;
26335;SDS011;14047;50.936;4.654;2022-11-13T00:15:30;33.58;;;21.00;;
26335;SDS011;14047;50.936;4.654;2022-11-13T00:17:59;31.08;;;19.30;;
26335;SDS011;14047;50.936;4.654;2022-11-13T00:20:26;38.75;;;20.75;;
26335;SDS011;14047;50.936;4.654;2022-11-13T00:22:52;36.17;;;21.40;;
26335;SDS011;14047;50.936;4.654;2022-11-13T00:25:17;51.17;;;24.88;;
26335;SDS011;14047;50.936;4.654;2022-11-13T00:27:43;44.97;;;25.05;;
26335;SDS011;14047;50.936;4.654;2022-11-13T00:30:08;37.03;;;21.33;;
26335;SDS011;14047;50.936;4.654;2022-11-13T00:32:34;35.05;;;21.35;;
26335;SDS011;14047;50.936;4.654;2022-11-13T00:35:02;36.70;;;21.10;;
26335;SDS011;14047;50.936;4.654;2022-11-13T00:37:28;30.58;;;20.05;;
26335;SDS011;14047;50.936;4.654;2022-11-13T00:39:53;34.83;;;22.58;;
26335;SDS011;14047;50.936;4.654;2022-11-13T00:42:19;35.30;;;20.83;;
26335;SDS011;14047;50.936;4.654;2022-11-13T00:44:45;35.92;;;21.65;;
26335;SDS011;14047;50.936;4.654;2022-11-13T00:47:10;36.45;;;22.25;;
26335;SDS011;14047;50.936;4.654;2022-11-13T00:49:36;36.22;;;21.92;;
26335;SDS011;14047;50.936;4.654;2022-11-13T00:52:01;30.75;;;20.90;;
26335;SDS011;14047;50.936;4.654;2022-11-13T00:54:27;30.15;;;20.65;;
26335;SDS011;14047;50.936;4.654;2022-11-13T00:56:53;36.53;;;24.48;;
26335;SDS011;14047;50.936;4.654;2022-11-13T00:59:18;28.65;;;20.73;;
26335;SDS011;14047;50.936;4.654;2022-11-13T01:01:44;33.63;;;23.40;;
26335;SDS011;14047;50.936;4.654;2022-11-13T01:04:10;30.83;;;21.17;;
26335;SDS011;14047;50.936;4.654;2022-11-13T01:06:35;33.92;;;23.27;;
26335;SDS011;14047;50.936;4.654;2022-11-13T01:09:01;34.97;;;23.85;;
26335;SDS011;14047;50.936;4.654;2022-11-13T01:11:28;36.03;;;24.58;;
26335;SDS011;14047;50.936;4.654;2022-11-13T01:13:54;37.20;;;24.92;;
26335;SDS011;14047;50.936;4.654;2022-11-13T01:16:21;38.20;;;24.80;;
26335;SDS011;14047;50.936;4.654;2022-11-13T01:18:48;37.35;;;23.77;;
26335;SDS011;14047;50.936;4.654;2022-11-13T01:21:18;31.40;;;20.85;;
26335;SDS011;14047;50.936;4.654;2022-11-13T01:23:49;26.27;;;18.13;;
26335;SDS011;14047;50.936;4.654;2022-11-13T01:26:16;27.83;;;18.80;;
26335;SDS011;14047;50.936;4.654;2022-11-13T01:28:43;31.88;;;19.58;;
26335;SDS011;14047;50.936;4.654;2022-11-13T01:31:11;27.15;;;18.63;;
26335;SDS011;14047;50.936;4.654;2022-11-13T01:33:39;27.90;;;19.65;;
26335;SDS011;14047;50.936;4.654;2022-11-13T01:36:06;29.83;;;19.90;;
26335;SDS011;14047;50.936;4.654;2022-11-13T01:38:34;25.85;;;17.58;;
26335;SDS011;14047;50.936;4.654;2022-11-13T01:40:59;28.70;;;19.20;;
26335;SDS011;14047;50.936;4.654;2022-11-13T01:43:26;32.40;;;20.15;;
26335;SDS011;14047;50.936;4.654;2022-11-13T01:48:22;27.10;;;19.40;;
26335;SDS011;14047;50.936;4.654;2022-11-13T01:50:49;29.00;;;19.15;;
26335;SDS011;14047;50.936;4.654;2022-11-13T01:53:14;27.25;;;18.13;;
26335;SDS011;14047;50.936;4.654;2022-11-13T01:55:40;28.38;;;19.77;;
26335;SDS011;14047;50.936;4.654;2022-11-13T01:58:07;25.40;;;18.35;;
26335;SDS011;14047;50.936;4.654;2022-11-13T02:00:34;30.90;;;19.95;;
26335;SDS011;14047;50.936;4.654;2022-11-13T02:02:59;28.45;;;18.45;;
26335;SDS011;14047;50.936;4.654;2022-11-13T02:05:25;21.88;;;15.95;;
26335;SDS011;14047;50.936;4.654;2022-11-13T02:07:51;21.30;;;14.40;;
26335;SDS011;14047;50.936;4.654;2022-11-13T02:10:16;22.10;;;16.05;;
26335;SDS011;14047;50.936;4.654;2022-11-13T02:12:43;25.52;;;18.20;;
26335;SDS011;14047;50.936;4.654;2022-11-13T02:15:13;26.35;;;16.98;;
26335;SDS011;14047;50.936;4.654;2022-11-13T02:17:41;27.88;;;18.60;;
26335;SDS011;14047;50.936;4.654;2022-11-13T02:20:12;29.33;;;19.40;;
26335;SDS011;14047;50.936;4.654;2022-11-13T02:25:29;32.45;;;20.65;;
26335;SDS011;14047;50.936;4.654;2022-11-13T02:27:57;36.25;;;23.00;;
26335;SDS011;14047;50.936;4.654;2022-11-13T02:30:24;33.60;;;21.52;;
26335;SDS011;14047;50.936;4.654;2022-11-13T02:32:55;34.80;;;22.00;;
26335;SDS011;14047;50.936;4.654;2022-11-13T02:37:53;39.53;;;23.73;;
26335;SDS011;14047;50.936;4.654;2022-11-13T02:40:21;37.60;;;24.33;;
26335;SDS011;14047;50.936;4.654;2022-11-13T02:42:48;48.65;;;26.38;;
26335;SDS011;14047;50.936;4.654;2022-11-13T02:45:13;42.72;;;25.02;;
26335;SDS011;14047;50.936;4.654;2022-11-13T02:47:39;45.97;;;25.27;;
26335;SDS011;14047;50.936;4.654;2022-11-13T02:50:05;41.17;;;25.00;;
26335;SDS011;14047;50.936;4.654;2022-11-13T02:52:31;41.75;;;24.58;;
26335;SDS011;14047;50.936;4.654;2022-11-13T02:54:56;40.80;;;23.88;;
26335;SDS011;14047;50.936;4.654;2022-11-13T02:57:22;37.70;;;23.83;;
26335;SDS011;14047;50.936;4.654;2022-11-13T02:59:48;39.67;;;23.85;;
26335;SDS011;14047;50.936;4.654;2022-11-13T03:02:13;43.58;;;22.73;;
26335;SDS011;14047;50.936;4.654;2022-11-13T03:04:39;30.50;;;19.38;;
26335;SDS011;14047;50.936;4.654;2022-11-13T03:07:05;28.92;;;18.95;;
26335;SDS011;14047;50.936;4.654;2022-11-13T03:09:30;32.05;;;19.70;;
26335;SDS011;14047;50.936;4.654;2022-11-13T03:11:56;26.90;;;19.02;;
26335;SDS011;14047;50.936;4.654;2022-11-13T03:14:21;34.00;;;19.55;;
26335;SDS011;14047;50.936;4.654;2022-11-13T03:16:47;30.15;;;19.05;;
26335;SDS011;14047;50.936;4.654;2022-11-13T03:19:12;29.75;;;19.52;;
26335;SDS011;14047;50.936;4.654;2022-11-13T03:21:39;29.10;;;19.70;;
26335;SDS011;14047;50.936;4.654;2022-11-13T03:24:04;26.35;;;17.95;;
26335;SDS011;14047;50.936;4.654;2022-11-13T03:26:30;27.63;;;19.05;;
26335;SDS011;14047;50.936;4.654;2022-11-13T03:28:56;34.10;;;19.70;;
26335;SDS011;14047;50.936;4.654;2022-11-13T03:31:22;33.67;;;21.50;;
26335;SDS011;14047;50.936;4.654;2022-11-13T03:33:47;30.13;;;19.65;;
26335;SDS011;14047;50.936;4.654;2022-11-13T03:36:15;36.92;;;22.13;;
26335;SDS011;14047;50.936;4.654;2022-11-13T03:38:41;34.65;;;21.90;;
26335;SDS011;14047;50.936;4.654;2022-11-13T03:41:07;38.90;;;21.90;;
26335;SDS011;14047;50.936;4.654;2022-11-13T03:43:32;32.97;;;20.95;;
26335;SDS011;14047;50.936;4.654;2022-11-13T03:45:58;33.17;;;20.77;;
26335;SDS011;14047;50.936;4.654;2022-11-13T03:48:23;37.08;;;23.00;;
26335;SDS011;14047;50.936;4.654;2022-11-13T03:50:51;38.00;;;21.88;;
26335;SDS011;14047;50.936;4.654;2022-11-13T03:53:18;36.05;;;21.55;;
26335;SDS011;14047;50.936;4.654;2022-11-13T03:55:43;40.15;;;22.38;;
26335;SDS011;14047;50.936;4.654;2022-11-13T03:58:10;22.90;;;16.13;;
26335;SDS011;14047;50.936;4.654;2022-11-13T04:00:36;32.78;;;20.95;;
26335;SDS011;14047;50.936;4.654;2022-11-13T04:03:03;37.10;;;21.50;;
26335;SDS011;14047;50.936;4.654;2022-11-13T04:05:29;36.97;;;22.50;;
26335;SDS011;14047;50.936;4.654;2022-11-13T04:07:54;37.53;;;21.15;;
26335;SDS011;14047;50.936;4.654;2022-11-13T04:10:20;33.83;;;21.88;;
26335;SDS011;14047;50.936;4.654;2022-11-13T04:12:46;32.92;;;20.40;;
26335;SDS011;14047;50.936;4.654;2022-11-13T04:15:12;31.92;;;20.70;;
26335;SDS011;14047;50.936;4.654;2022-11-13T04:17:37;33.58;;;20.10;;
26335;SDS011;14047;50.936;4.654;2022-11-13T04:20:03;37.58;;;22.85;;
26335;SDS011;14047;50.936;4.654;2022-11-13T04:22:29;32.55;;;21.08;;
26335;SDS011;14047;50.936;4.654;2022-11-13T04:24:55;44.28;;;24.15;;
26335;SDS011;14047;50.936;4.654;2022-11-13T04:27:20;38.28;;;23.80;;
26335;SDS011;14047;50.936;4.654;2022-11-13T04:29:46;34.35;;;21.33;;
26335;SDS011;14047;50.936;4.654;2022-11-13T04:32:11;39.00;;;22.67;;
26335;SDS011;14047;50.936;4.654;2022-11-13T04:34:37;38.33;;;22.15;;
26335;SDS011;14047;50.936;4.654;2022-11-13T04:37:02;35.65;;;22.33;;
26335;SDS011;14047;50.936;4.654;2022-11-13T04:39:28;44.13;;;23.90;;
26335;SDS011;14047;50.936;4.654;2022-11-13T04:41:54;41.47;;;24.65;;
26335;SDS011;14047;50.936;4.654;2022-11-13T04:44:37;34.38;;;21.63;;
26335;SDS011;14047;50.936;4.654;2022-11-13T04:47:03;34.10;;;21.35;;
26335;SDS011;14047;50.936;4.654;2022-11-13T04:49:29;33.17;;;21.05;;
26335;SDS011;14047;50.936;4.654;2022-11-13T04:51:54;35.17;;;21.90;;
26335;SDS011;14047;50.936;4.654;2022-11-13T04:54:20;38.97;;;23.52;;
26335;SDS011;14047;50.936;4.654;2022-11-13T04:56:46;37.50;;;23.15;;
26335;SDS011;14047;50.936;4.654;2022-11-13T04:59:11;42.22;;;22.25;;
26335;SDS011;14047;50.936;4.654;2022-11-13T05:01:37;37.17;;;21.42;;
26335;SDS011;14047;50.936;4.654;2022-11-13T05:04:02;29.17;;;19.48;;
26335;SDS011;14047;50.936;4.654;2022-11-13T05:06:28;36.42;;;21.38;;
26335;SDS011;14047;50.936;4.654;2022-11-13T05:08:54;33.65;;;21.05;;
26335;SDS011;14047;50.936;4.654;2022-11-13T05:11:19;44.47;;;23.98;;
26335;SDS011;14047;50.936;4.654;2022-11-13T05:13:45;32.58;;;19.90;;
26335;SDS011;14047;50.936;4.654;2022-11-13T05:16:11;28.17;;;19.23;;
26335;SDS011;14047;50.936;4.654;2022-11-13T05:18:38;32.05;;;19.17;;
26335;SDS011;14047;50.936;4.654;2022-11-13T05:21:04;29.25;;;19.23;;
26335;SDS011;14047;50.936;4.654;2022-11-13T05:23:31;33.80;;;20.23;;
26335;SDS011;14047;50.936;4.654;2022-11-13T05:26:07;31.30;;;20.08;;
26335;SDS011;14047;50.936;4.654;2022-11-13T05:28:34;328.73;;;36.58;;
26335;SDS011;14047;50.936;4.654;2022-11-13T05:31:08;178.95;;;28.75;;
26335;SDS011;14047;50.936;4.654;2022-11-13T05:33:36;35.92;;;20.98;;
26335;SDS011;14047;50.936;4.654;2022-11-13T05:36:04;32.00;;;21.10;;
26335;SDS011;14047;50.936;4.654;2022-11-13T05:38:31;30.52;;;20.27;;
26335;SDS011;14047;50.936;4.654;2022-11-13T05:41:16;34.53;;;21.50;;
26335;SDS011;14047;50.936;4.654;2022-11-13T05:43:43;32.55;;;20.17;;
26335;SDS011;14047;50.936;4.654;2022-11-13T05:46:14;31.75;;;19.65;;
26335;SDS011;14047;50.936;4.654;2022-11-13T05:48:41;34.42;;;20.80;;
26335;SDS011;14047;50.936;4.654;2022-11-13T05:51:09;35.22;;;21.90;;
26335;SDS011;14047;50.936;4.654;2022-11-13T05:53:40;35.58;;;21.92;;
26335;SDS011;14047;50.936;4.654;2022-11-13T05:56:11;30.70;;;19.77;;
26335;SDS011;14047;50.936;4.654;2022-11-13T05:58:39;36.47;;;21.50;;
26335;SDS011;14047;50.936;4.654;2022-11-13T06:03:49;44.55;;;24.05;;
26335;SDS011;14047;50.936;4.654;2022-11-13T06:06:17;40.10;;;22.70;;
26335;SDS011;14047;50.936;4.654;2022-11-13T06:08:44;38.17;;;23.05;;
26335;SDS011;14047;50.936;4.654;2022-11-13T06:11:11;40.47;;;24.73;;
26335;SDS011;14047;50.936;4.654;2022-11-13T06:13:38;48.58;;;24.25;;
26335;SDS011;14047;50.936;4.654;2022-11-13T06:16:05;41.45;;;22.80;;
26335;SDS011;14047;50.936;4.654;2022-11-13T06:18:33;40.55;;;23.30;;
26335;SDS011;14047;50.936;4.654;2022-11-13T06:21:00;43.47;;;24.30;;
26335;SDS011;14047;50.936;4.654;2022-11-13T06:23:26;38.80;;;22.23;;
26335;SDS011;14047;50.936;4.654;2022-11-13T06:25:52;38.53;;;21.70;;
26335;SDS011;14047;50.936;4.654;2022-11-13T06:28:23;35.58;;;21.15;;
26335;SDS011;14047;50.936;4.654;2022-11-13T06:30:49;36.13;;;21.73;;
26335;SDS011;14047;50.936;4.654;2022-11-13T06:33:14;32.97;;;20.70;;
26335;SDS011;14047;50.936;4.654;2022-11-13T06:35:40;36.38;;;21.25;;
26335;SDS011;14047;50.936;4.654;2022-11-13T06:38:05;30.40;;;19.52;;
26335;SDS011;14047;50.936;4.654;2022-11-13T06:40:31;32.58;;;20.33;;
26335;SDS011;14047;50.936;4.654;2022-11-13T06:42:57;31.27;;;20.63;;
26335;SDS011;14047;50.936;4.654;2022-11-13T06:45:22;35.80;;;20.73;;
26335;SDS011;14047;50.936;4.654;2022-11-13T06:47:48;30.30;;;18.50;;
26335;SDS011;14047;50.936;4.654;2022-11-13T06:50:14;34.17;;;20.33;;
26335;SDS011;14047;50.936;4.654;2022-11-13T06:52:39;31.77;;;20.50;;
26335;SDS011;14047;50.936;4.654;2022-11-13T06:55:05;36.70;;;21.27;;
26335;SDS011;14047;50.936;4.654;2022-11-13T06:57:31;40.10;;;21.45;;
26335;SDS011;14047;50.936;4.654;2022-11-13T06:59:57;36.88;;;21.08;;
26335;SDS011;14047;50.936;4.654;2022-11-13T07:02:22;40.38;;;22.52;;
26335;SDS011;14047;50.936;4.654;2022-11-13T07:04:48;42.25;;;22.40;;
26335;SDS011;14047;50.936;4.654;2022-11-13T07:07:14;37.40;;;20.80;;
26335;SDS011;14047;50.936;4.654;2022-11-13T07:09:39;36.42;;;21.30;;
26335;SDS011;14047;50.936;4.654;2022-11-13T07:12:05;35.42;;;21.63;;
26335;SDS011;14047;50.936;4.654;2022-11-13T07:14:31;38.67;;;21.58;;
26335;SDS011;14047;50.936;4.654;2022-11-13T07:16:56;32.55;;;19.63;;
26335;SDS011;14047;50.936;4.654;2022-11-13T07:19:23;222.48;;;27.88;;
26335;SDS011;14047;50.936;4.654;2022-11-13T07:21:48;87.43;;;24.05;;
26335;SDS011;14047;50.936;4.654;2022-11-13T07:24:14;39.25;;;21.85;;
26335;SDS011;14047;50.936;4.654;2022-11-13T07:26:40;37.30;;;21.10;;
26335;SDS011;14047;50.936;4.654;2022-11-13T07:29:05;49.97;;;22.75;;
26335;SDS011;14047;50.936;4.654;2022-11-13T07:31:31;35.83;;;22.45;;
26335;SDS011;14047;50.936;4.654;2022-11-13T07:33:56;49.33;;;28.60;;
26335;SDS011;14047;50.936;4.654;2022-11-13T07:36:22;36.70;;;22.42;;
26335;SDS011;14047;50.936;4.654;2022-11-13T07:38:47;33.65;;;20.35;;
26335;SDS011;14047;50.936;4.654;2022-11-13T07:41:13;44.50;;;27.05;;
26335;SDS011;14047;50.936;4.654;2022-11-13T07:43:39;33.30;;;19.40;;
26335;SDS011;14047;50.936;4.654;2022-11-13T07:46:04;30.45;;;18.77;;
26335;SDS011;14047;50.936;4.654;2022-11-13T07:48:30;30.30;;;19.75;;
26335;SDS011;14047;50.936;4.654;2022-11-13T07:50:58;32.08;;;19.40;;
26335;SDS011;14047;50.936;4.654;2022-11-13T07:53:25;31.17;;;19.55;;
26335;SDS011;14047;50.936;4.654;2022-11-13T07:55:51;41.65;;;21.45;;
26335;SDS011;14047;50.936;4.654;2022-11-13T07:58:17;33.40;;;21.02;;
26335;SDS011;14047;50.936;4.654;2022-11-13T08:00:42;38.83;;;21.58;;
26335;SDS011;14047;50.936;4.654;2022-11-13T08:03:10;32.70;;;20.52;;
26335;SDS011;14047;50.936;4.654;2022-11-13T08:05:38;38.33;;;21.77;;
26335;SDS011;14047;50.936;4.654;2022-11-13T08:08:04;44.38;;;23.85;;
26335;SDS011;14047;50.936;4.654;2022-11-13T08:10:30;47.15;;;24.05;;
26335;SDS011;14047;50.936;4.654;2022-11-13T08:13:00;41.88;;;24.65;;
26335;SDS011;14047;50.936;4.654;2022-11-13T08:15:31;41.17;;;23.85;;
26335;SDS011;14047;50.936;4.654;2022-11-13T08:17:57;49.60;;;25.17;;
26335;SDS011;14047;50.936;4.654;2022-11-13T08:20:24;44.70;;;23.30;;
26335;SDS011;14047;50.936;4.654;2022-11-13T08:22:51;44.22;;;25.23;;
26335;SDS011;14047;50.936;4.654;2022-11-13T08:25:20;49.03;;;30.13;;
26335;SDS011;14047;50.936;4.654;2022-11-13T08:27:46;67.10;;;37.20;;
26335;SDS011;14047;50.936;4.654;2022-11-13T08:30:12;99.93;;;50.35;;
26335;SDS011;14047;50.936;4.654;2022-11-13T08:32:38;86.40;;;45.63;;
26335;SDS011;14047;50.936;4.654;2022-11-13T08:35:04;98.43;;;49.72;;
26335;SDS011;14047;50.936;4.654;2022-11-13T08:37:31;76.15;;;41.55;;
26335;SDS011;14047;50.936;4.654;2022-11-13T08:39:57;57.83;;;32.00;;
26335;SDS011;14047;50.936;4.654;2022-11-13T08:42:22;52.60;;;28.95;;
26335;SDS011;14047;50.936;4.654;2022-11-13T08:44:48;46.10;;;26.45;;
26335;SDS011;14047;50.936;4.654;2022-11-13T08:47:13;37.45;;;24.05;;
26335;SDS011;14047;50.936;4.654;2022-11-13T08:49:39;35.53;;;22.13;;
26335;SDS011;14047;50.936;4.654;2022-11-13T08:52:05;36.63;;;22.42;;
26335;SDS011;14047;50.936;4.654;2022-11-13T08:54:30;38.88;;;21.83;;
26335;SDS011;14047;50.936;4.654;2022-11-13T08:56:56;34.25;;;21.92;;
26335;SDS011;14047;50.936;4.654;2022-11-13T08:59:21;34.50;;;21.23;;
26335;SDS011;14047;50.936;4.654;2022-11-13T09:01:47;33.55;;;19.48;;
26335;SDS011;14047;50.936;4.654;2022-11-13T09:04:13;33.92;;;20.73;;
26335;SDS011;14047;50.936;4.654;2022-11-13T09:06:39;33.10;;;19.90;;
26335;SDS011;14047;50.936;4.654;2022-11-13T09:09:05;38.30;;;22.85;;
26335;SDS011;14047;50.936;4.654;2022-11-13T09:11:31;34.65;;;21.85;;
26335;SDS011;14047;50.936;4.654;2022-11-13T09:13:57;42.55;;;23.88;;
26335;SDS011;14047;50.936;4.654;2022-11-13T09:16:22;43.08;;;25.75;;
26335;SDS011;14047;50.936;4.654;2022-11-13T09:18:51;46.70;;;26.23;;
26335;SDS011;14047;50.936;4.654;2022-11-13T09:21:17;42.72;;;26.30;;
26335;SDS011;14047;50.936;4.654;2022-11-13T09:23:42;43.03;;;26.15;;
26335;SDS011;14047;50.936;4.654;2022-11-13T09:26:08;47.17;;;27.67;;
26335;SDS011;14047;50.936;4.654;2022-11-13T09:28:34;45.22;;;27.40;;
26335;SDS011;14047;50.936;4.654;2022-11-13T09:31:03;44.75;;;25.83;;
26335;SDS011;14047;50.936;4.654;2022-11-13T09:33:30;43.88;;;26.35;;
26335;SDS011;14047;50.936;4.654;2022-11-13T09:35:55;40.35;;;24.58;;
26335;SDS011;14047;50.936;4.654;2022-11-13T09:38:21;43.92;;;24.05;;
26335;SDS011;14047;50.936;4.654;2022-11-13T09:40:58;38.45;;;23.67;;
26335;SDS011;14047;50.936;4.654;2022-11-13T09:43:30;37.38;;;23.30;;
26335;SDS011;14047;50.936;4.654;2022-11-13T09:46:21;39.00;;;21.92;;
26335;SDS011;14047;50.936;4.654;2022-11-13T09:49:12;37.30;;;23.13;;
26335;SDS011;14047;50.936;4.654;2022-11-13T09:51:52;33.50;;;20.25;;
26335;SDS011;14047;50.936;4.654;2022-11-13T09:54:25;29.63;;;18.55;;
26335;SDS011;14047;50.936;4.654;2022-11-13T09:59:39;26.25;;;17.20;;
26335;SDS011;14047;50.936;4.654;2022-11-13T10:15:59;26.15;;;17.63;;
26335;SDS011;14047;50.936;4.654;2022-11-13T10:18:30;27.50;;;18.45;;
26335;SDS011;14047;50.936;4.654;2022-11-13T10:21:08;30.50;;;18.80;;
26335;SDS011;14047;50.936;4.654;2022-11-13T10:23:34;31.40;;;18.40;;
26335;SDS011;14047;50.936;4.654;2022-11-13T10:26:16;31.52;;;18.88;;
26335;SDS011;14047;50.936;4.654;2022-11-13T10:28:47;30.83;;;19.77;;
26335;SDS011;14047;50.936;4.654;2022-11-13T10:31:39;25.38;;;17.25;;
26335;SDS011;14047;50.936;4.654;2022-11-13T10:34:09;30.23;;;18.35;;
26335;SDS011;14047;50.936;4.654;2022-11-13T10:39:42;23.27;;;15.98;;
26335;SDS011;14047;50.936;4.654;2022-11-13T10:42:27;24.02;;;16.00;;
26335;SDS011;14047;50.936;4.654;2022-11-13T10:44:58;23.48;;;15.40;;
26335;SDS011;14047;50.936;4.654;2022-11-13T10:47:25;22.33;;;13.70;;
26335;SDS011;14047;50.936;4.654;2022-11-13T10:49:53;21.65;;;14.38;;
26335;SDS011;14047;50.936;4.654;2022-11-13T10:52:24;22.67;;;13.07;;
26335;SDS011;14047;50.936;4.654;2022-11-13T10:55:10;18.58;;;13.13;;
26335;SDS011;14047;50.936;4.654;2022-11-13T10:57:54;19.98;;;13.45;;
26335;SDS011;14047;50.936;4.654;2022-11-13T11:00:23;27.00;;;13.27;;
26335;SDS011;14047;50.936;4.654;2022-11-13T11:02:59;17.48;;;11.80;;
26335;SDS011;14047;50.936;4.654;2022-11-13T11:05:26;16.25;;;11.68;;
26335;SDS011;14047;50.936;4.654;2022-11-13T11:07:52;19.20;;;12.30;;
26335;SDS011;14047;50.936;4.654;2022-11-13T11:12:50;19.10;;;11.57;;
26335;SDS011;14047;50.936;4.654;2022-11-13T11:15:43;18.45;;;12.50;;
26335;SDS011;14047;50.936;4.654;2022-11-13T11:18:18;17.98;;;11.73;;
26335;SDS011;14047;50.936;4.654;2022-11-13T11:25:58;17.08;;;10.80;;
26335;SDS011;14047;50.936;4.654;2022-11-13T11:29:13;17.02;;;10.70;;
26335;SDS011;14047;50.936;4.654;2022-11-13T11:31:38;15.95;;;9.68;;
26335;SDS011;14047;50.936;4.654;2022-11-13T11:37:21;16.10;;;10.98;;
26335;SDS011;14047;50.936;4.654;2022-11-13T11:40:02;17.30;;;10.80;;
26335;SDS011;14047;50.936;4.654;2022-11-13T11:43:00;18.90;;;10.40;;
26335;SDS011;14047;50.936;4.654;2022-11-13T11:45:36;15.80;;;10.52;;
26335;SDS011;14047;50.936;4.654;2022-11-13T11:48:27;18.52;;;10.55;;
26335;SDS011;14047;50.936;4.654;2022-11-13T11:54:10;15.27;;;10.38;;
26335;SDS011;14047;50.936;4.654;2022-11-13T12:05:21;19.23;;;10.65;;
26335;SDS011;14047;50.936;4.654;2022-11-13T12:08:06;15.45;;;9.90;;
26335;SDS011;14047;50.936;4.654;2022-11-13T12:10:48;17.42;;;9.40;;
26335;SDS011;14047;50.936;4.654;2022-11-13T12:13:29;13.60;;;9.70;;
26335;SDS011;14047;50.936;4.654;2022-11-13T12:24:36;11.63;;;8.82;;
26335;SDS011;14047;50.936;4.654;2022-11-13T12:27:34;11.60;;;8.38;;
26335;SDS011;14047;50.936;4.654;2022-11-13T12:30:18;12.63;;;8.85;;
26335;SDS011;14047;50.936;4.654;2022-11-13T12:35:30;11.07;;;7.68;;
26335;SDS011;14047;50.936;4.654;2022-11-13T12:40:56;13.57;;;6.10;;
26335;SDS011;14047;50.936;4.654;2022-11-13T12:46:14;8.30;;;5.55;;
26335;SDS011;14047;50.936;4.654;2022-11-13T12:48:41;8.13;;;5.32;;
26335;SDS011;14047;50.936;4.654;2022-11-13T12:51:09;8.73;;;5.78;;
26335;SDS011;14047;50.936;4.654;2022-11-13T12:53:53;9.75;;;5.63;;
26335;SDS011;14047;50.936;4.654;2022-11-13T12:58:53;7.32;;;4.57;;
26335;SDS011;14047;50.936;4.654;2022-11-13T13:01:21;8.50;;;4.68;;
26335;SDS011;14047;50.936;4.654;2022-11-13T13:09:36;7.22;;;4.68;;
26335;SDS011;14047;50.936;4.654;2022-11-13T13:12:31;7.65;;;4.90;;
26335;SDS011;14047;50.936;4.654;2022-11-13T13:18:00;9.77;;;4.90;;
26335;SDS011;14047;50.936;4.654;2022-11-13T13:20:39;9.18;;;5.13;;
26335;SDS011;14047;50.936;4.654;2022-11-13T13:23:10;9.13;;;4.65;;
26335;SDS011;14047;50.936;4.654;2022-11-13T13:25:37;7.53;;;5.13;;
26335;SDS011;14047;50.936;4.654;2022-11-13T13:30:43;8.63;;;5.13;;
26335;SDS011;14047;50.936;4.654;2022-11-13T13:36:35;7.78;;;5.45;;
26335;SDS011;14047;50.936;4.654;2022-11-13T13:44:50;10.45;;;5.65;;
26335;SDS011;14047;50.936;4.654;2022-11-13T13:47:33;8.68;;;5.50;;
26335;SDS011;14047;50.936;4.654;2022-11-13T13:50:07;7.30;;;5.25;;
26335;SDS011;14047;50.936;4.654;2022-11-13T13:52:41;10.07;;;5.28;;
26335;SDS011;14047;50.936;4.654;2022-11-13T13:55:18;8.05;;;5.82;;
26335;SDS011;14047;50.936;4.654;2022-11-13T13:57:51;11.02;;;5.68;;
26335;SDS011;14047;50.936;4.654;2022-11-13T14:00:18;7.78;;;5.63;;
26335;SDS011;14047;50.936;4.654;2022-11-13T14:02:49;8.13;;;5.43;;
26335;SDS011;14047;50.936;4.654;2022-11-13T14:05:29;7.32;;;4.88;;
26335;SDS011;14047;50.936;4.654;2022-11-13T14:07:58;8.32;;;5.57;;
26335;SDS011;14047;50.936;4.654;2022-11-13T14:10:26;9.73;;;6.18;;
26335;SDS011;14047;50.936;4.654;2022-11-13T14:12:53;12.38;;;5.63;;
26335;SDS011;14047;50.936;4.654;2022-11-13T14:15:27;6.68;;;5.32;;
26335;SDS011;14047;50.936;4.654;2022-11-13T14:20:41;9.32;;;5.65;;
26335;SDS011;14047;50.936;4.654;2022-11-13T14:23:09;10.88;;;5.97;;
26335;SDS011;14047;50.936;4.654;2022-11-13T14:25:42;6.95;;;5.45;;
26335;SDS011;14047;50.936;4.654;2022-11-13T14:28:16;9.27;;;5.93;;
26335;SDS011;14047;50.936;4.654;2022-11-13T14:30:43;9.45;;;5.80;;
26335;SDS011;14047;50.936;4.654;2022-11-13T14:33:20;11.85;;;6.28;;
26335;SDS011;14047;50.936;4.654;2022-11-13T14:35:53;8.57;;;5.63;;
26335;SDS011;14047;50.936;4.654;2022-11-13T14:38:24;10.93;;;6.00;;
26335;SDS011;14047;50.936;4.654;2022-11-13T14:40:52;8.35;;;5.60;;
26335;SDS011;14047;50.936;4.654;2022-11-13T14:43:29;10.10;;;5.90;;
26335;SDS011;14047;50.936;4.654;2022-11-13T14:45:57;10.10;;;5.88;;
26335;SDS011;14047;50.936;4.654;2022-11-13T14:48:28;9.48;;;6.20;;
26335;SDS011;14047;50.936;4.654;2022-11-13T14:50:56;8.45;;;5.85;;
26335;SDS011;14047;50.936;4.654;2022-11-13T14:53:31;9.38;;;6.35;;
26335;SDS011;14047;50.936;4.654;2022-11-13T14:56:02;12.90;;;6.13;;
26335;SDS011;14047;50.936;4.654;2022-11-13T14:58:34;10.38;;;6.68;;
26335;SDS011;14047;50.936;4.654;2022-11-13T15:01:15;9.43;;;6.60;;
26335;SDS011;14047;50.936;4.654;2022-11-13T15:03:46;10.18;;;6.70;;
26335;SDS011;14047;50.936;4.654;2022-11-13T15:06:13;11.80;;;6.68;;
26335;SDS011;14047;50.936;4.654;2022-11-13T15:08:41;11.50;;;7.20;;
26335;SDS011;14047;50.936;4.654;2022-11-13T15:11:10;11.63;;;6.10;;
26335;SDS011;14047;50.936;4.654;2022-11-13T15:13:38;10.50;;;6.53;;
26335;SDS011;14047;50.936;4.654;2022-11-13T15:16:04;8.75;;;6.20;;
26335;SDS011;14047;50.936;4.654;2022-11-13T15:18:30;10.75;;;5.78;;
26335;SDS011;14047;50.936;4.654;2022-11-13T15:20:57;16.80;;;7.43;;
26335;SDS011;14047;50.936;4.654;2022-11-13T15:23:23;12.90;;;6.90;;
26335;SDS011;14047;50.936;4.654;2022-11-13T15:25:50;8.63;;;6.47;;
26335;SDS011;14047;50.936;4.654;2022-11-13T15:28:15;10.85;;;6.55;;
26335;SDS011;14047;50.936;4.654;2022-11-13T15:30:41;10.75;;;6.97;;
26335;SDS011;14047;50.936;4.654;2022-11-13T15:33:13;10.77;;;6.93;;
26335;SDS011;14047;50.936;4.654;2022-11-13T15:35:40;17.77;;;8.43;;
26335;SDS011;14047;50.936;4.654;2022-11-13T15:38:07;13.50;;;7.55;;
26335;SDS011;14047;50.936;4.654;2022-11-13T15:40:34;63.17;;;43.42;;
26335;SDS011;14047;50.936;4.654;2022-11-13T15:43:00;45.05;;;29.77;;
26335;SDS011;14047;50.936;4.654;2022-11-13T15:45:26;16.92;;;10.95;;
26335;SDS011;14047;50.936;4.654;2022-11-13T15:47:51;16.98;;;8.55;;
26335;SDS011;14047;50.936;4.654;2022-11-13T15:50:17;12.95;;;9.32;;
26335;SDS011;14047;50.936;4.654;2022-11-13T15:52:46;17.60;;;12.30;;
26335;SDS011;14047;50.936;4.654;2022-11-13T15:55:25;30.75;;;22.63;;
26335;SDS011;14047;50.936;4.654;2022-11-13T15:57:53;19.27;;;9.05;;
26335;SDS011;14047;50.936;4.654;2022-11-13T16:00:23;17.95;;;9.40;;
26335;SDS011;14047;50.936;4.654;2022-11-13T16:02:55;45.65;;;28.10;;
26335;SDS011;14047;50.936;4.654;2022-11-13T16:05:22;62.03;;;40.05;;
26335;SDS011;14047;50.936;4.654;2022-11-13T16:07:51;44.60;;;31.30;;
26335;SDS011;14047;50.936;4.654;2022-11-13T16:10:18;47.10;;;30.80;;